Terminal Aerodrome Forecast
Issued by NWS

Home | Current Version | Previous Version | Text Only | Print | Product List | Glossary On
Versions: 1 2 3 4 5 6 7 8 9 10 11 12 13 14
000
FTUS43 KDTX 210047 AAA
TAFDET
TAF AMD
KDET 210047Z 2101/2124 26016G26KT P6SM -SHRA SCT018 BKN024 OVC045
     FM210200 23015KT P6SM SCT026 OVC035
     FM210500 22012KT P6SM BKN045
     FM211300 24016G26KT P6SM BKN060
     FM211600 24022G32KT P6SM SCT040 BKN060 PROB30 2117/2121
      25024G38KT 6SM SHRA BKN040 OVC060=

USA.gov is the U.S. government's official web portal to all federal, state and local government web resources and services.